CDY weather

Cagayan de Sulu Airport
Mapun, Tawi-Tawi Province, Philippines

Public forecast

Using degrees Celsius for public forecast. Weather courtesy of forecast.io.

METAR (pilot weather report)

Closest report is Sandakan Airport, 71.7 nm (132.9 km) SSW. Retrieved 2019/03/26 21:00 UTC (2 hours ago):

WBKS 262100Z 00000KT 9999 FEW014 BKN290 25/25 Q1012

TAF (pilot weather forecast)

Closest forecast is Sandakan Airport, 71.7 nm (132.9 km) SSW. Retrieved 2019/03/26 18:00 UTC (5 hours ago):

TAF WBKS 261700Z 2618/2718 05008KT 9999 SCT016